createdAt,value
2023-01-07T00:00:48.531Z,65.61
2023-01-07T00:03:21.113Z,65.68
2023-01-07T00:05:59.078Z,66.33
2023-01-07T00:08:33.229Z,66.49
2023-01-07T00:11:07.901Z,66.39
2023-01-07T00:13:40.566Z,65.60
2023-01-07T00:16:16.280Z,65.39
2023-01-07T00:18:50.738Z,66.57
2023-01-07T00:21:25.003Z,66.45
2023-01-07T00:23:59.644Z,66.64
2023-01-07T00:26:33.624Z,65.40
2023-01-07T00:29:07.507Z,66.00
2023-01-07T00:31:41.635Z,65.91
2023-01-07T00:34:14.403Z,66.19
2023-01-07T00:36:46.971Z,65.63
2023-01-07T00:39:21.176Z,65.86
2023-01-07T00:42:12.295Z,65.87
2023-01-07T00:44:44.765Z,66.25
2023-01-07T00:47:18.733Z,66.31
2023-01-07T00:49:51.089Z,65.46
2023-01-07T00:52:23.537Z,65.51
2023-01-07T00:54:56.127Z,65.41
2023-01-07T00:57:28.609Z,65.79
2023-01-07T01:00:01.101Z,66.38
2023-01-07T01:02:35.164Z,65.39
2023-01-07T01:05:09.377Z,65.14
2023-01-07T01:07:42.245Z,65.55
2023-01-07T01:10:16.982Z,64.93
2023-01-07T01:12:50.057Z,65.53
2023-01-07T01:15:22.841Z,65.14
2023-01-07T01:17:56.954Z,64.97
2023-01-07T01:20:29.331Z,65.11
2023-01-07T01:23:02.084Z,65.74
2023-01-07T01:25:34.655Z,64.90
2023-01-07T01:28:07.304Z,65.32
2023-01-07T01:30:39.785Z,65.08
2023-01-07T01:33:15.819Z,65.37
2023-01-07T01:35:48.589Z,65.07
2023-01-07T01:38:21.326Z,65.11
2023-01-07T01:40:53.803Z,65.27
2023-01-07T01:43:30.110Z,65.23
2023-01-07T01:46:04.821Z,64.84
2023-01-07T01:48:43.616Z,65.51
2023-01-07T01:51:19.741Z,65.15
2023-01-07T01:53:53.124Z,65.22
2023-01-07T01:56:29.883Z,65.59
2023-01-07T01:59:06.298Z,65.13
2023-01-07T02:01:40.590Z,64.84
2023-01-07T02:04:22.428Z,65.55
2023-01-07T02:06:59.631Z,65.69
2023-01-07T02:09:34.337Z,64.82
2023-01-07T02:12:15.920Z,65.25
2023-01-07T02:15:04.726Z,65.57
2023-01-07T02:18:05.590Z,65.12
2023-01-07T02:20:50.926Z,65.09
2023-01-07T02:24:05.952Z,64.36
2023-01-07T02:27:09.759Z,64.98
2023-01-07T02:30:18.105Z,65.14
2023-01-07T02:33:21.169Z,64.98
2023-01-07T02:36:24.475Z,64.95
2023-01-07T02:39:10.188Z,65.67
2023-01-07T02:41:51.017Z,65.52
2023-01-07T02:44:30.510Z,65.27
2023-01-07T02:47:09.842Z,64.47
2023-01-07T02:49:46.276Z,64.88
2023-01-07T02:52:22.526Z,64.93
2023-01-07T02:55:01.865Z,65.52
2023-01-07T02:58:14.667Z,64.35
2023-01-07T03:01:26.065Z,65.23
2023-01-07T03:04:12.760Z,64.41
2023-01-07T03:07:04.385Z,64.73
2023-01-07T03:09:44.339Z,64.93
2023-01-07T03:12:24.234Z,64.48
2023-01-07T03:15:06.027Z,65.71
2023-01-07T03:17:42.746Z,65.77
2023-01-07T03:20:19.758Z,65.29
2023-01-07T03:22:55.134Z,65.82
2023-01-07T03:25:32.200Z,64.91
2023-01-07T03:28:07.434Z,65.44
2023-01-07T03:30:40.013Z,65.28
2023-01-07T03:33:16.651Z,65.31
2023-01-07T03:35:53.300Z,64.55
2023-01-07T03:38:28.566Z,64.73
2023-01-07T03:41:01.824Z,64.85
2023-01-07T03:43:34.912Z,65.63
2023-01-07T03:46:07.585Z,65.68
2023-01-07T03:48:40.133Z,64.99
2023-01-07T03:51:12.668Z,65.46
2023-01-07T03:53:46.816Z,65.00
2023-01-07T03:56:19.445Z,65.29
2023-01-07T03:58:51.949Z,65.12
2023-01-07T04:01:24.512Z,64.68
2023-01-07T04:03:57.433Z,65.14
2023-01-07T04:06:30.113Z,64.65
2023-01-07T04:09:04.281Z,64.75
2023-01-07T04:11:38.813Z,65.26
2023-01-07T04:14:12.155Z,65.74
2023-01-07T04:16:44.834Z,65.36
2023-01-07T04:19:18.129Z,64.92
2023-01-07T04:21:50.579Z,65.36
2023-01-07T04:24:24.706Z,65.63
2023-01-07T04:26:57.686Z,65.07
2023-01-07T04:29:30.795Z,65.37
2023-01-07T04:32:03.295Z,65.52
2023-01-07T04:34:35.945Z,65.70
2023-01-07T04:37:09.256Z,65.65
2023-01-07T04:39:43.391Z,65.65
2023-01-07T04:42:15.844Z,64.53
2023-01-07T04:44:48.674Z,65.20
2023-01-07T04:47:21.146Z,65.65
2023-01-07T04:49:53.833Z,65.40
2023-01-07T04:52:26.663Z,65.31
2023-01-07T04:55:00.928Z,65.00
2023-01-07T04:57:35.120Z,65.14
2023-01-07T05:00:09.249Z,64.98
2023-01-07T05:02:42.240Z,65.31
2023-01-07T05:05:16.939Z,64.62
2023-01-07T05:07:50.499Z,65.20
2023-01-07T05:10:25.845Z,64.85
2023-01-07T05:12:58.958Z,64.74
2023-01-07T05:15:32.020Z,65.43
2023-01-07T05:18:05.529Z,65.87
2023-01-07T05:20:39.517Z,65.28
2023-01-07T05:23:12.438Z,65.54
2023-01-07T05:25:46.639Z,65.46
2023-01-07T05:28:19.276Z,65.11
2023-01-07T05:30:51.815Z,65.01
2023-01-07T05:33:24.427Z,65.03
2023-01-07T05:35:57.719Z,65.00
2023-01-07T05:38:30.159Z,65.55
2023-01-07T05:41:05.337Z,65.69
2023-01-07T05:43:37.947Z,65.83
2023-01-07T05:46:10.598Z,65.39
2023-01-07T05:48:42.936Z,66.25
2023-01-07T05:51:15.431Z,66.16
2023-01-07T05:53:47.806Z,65.64
2023-01-07T05:56:22.100Z,66.00
2023-01-07T05:58:54.544Z,66.36
2023-01-07T06:01:27.094Z,66.07
2023-01-07T06:03:59.662Z,65.79
2023-01-07T06:06:32.127Z,65.42
2023-01-07T06:09:04.784Z,65.31
2023-01-07T06:11:38.659Z,66.05
2023-01-07T06:14:11.378Z,66.49
2023-01-07T06:16:43.989Z,65.58
2023-01-07T06:19:16.287Z,65.52
2023-01-07T06:21:49.004Z,66.13
2023-01-07T06:24:21.351Z,65.48
2023-01-07T06:26:55.385Z,66.15
2023-01-07T06:29:27.870Z,65.57
2023-01-07T06:32:00.306Z,65.99
2023-01-07T06:34:32.705Z,64.95
2023-01-07T06:37:05.235Z,65.51
2023-01-07T06:39:37.660Z,64.86
2023-01-07T06:42:11.740Z,65.49
2023-01-07T06:44:44.177Z,64.94
2023-01-07T06:47:16.723Z,65.17
2023-01-07T06:49:49.199Z,65.00
2023-01-07T06:52:21.754Z,65.24
2023-01-07T06:54:54.177Z,65.50
2023-01-07T06:57:28.088Z,64.95
2023-01-07T07:00:00.529Z,65.15
2023-01-07T07:02:33.175Z,64.84
2023-01-07T07:05:06.090Z,64.31
2023-01-07T07:07:38.788Z,65.40
2023-01-07T07:10:11.619Z,64.26
2023-01-07T07:12:46.509Z,65.25
2023-01-07T07:15:19.063Z,64.69
2023-01-07T07:17:51.595Z,64.89
2023-01-07T07:20:24.159Z,64.95
2023-01-07T07:22:56.587Z,64.70
2023-01-07T07:25:29.009Z,64.67
2023-01-07T07:28:03.009Z,64.81
2023-01-07T07:30:46.437Z,65.04
2023-01-07T07:33:20.350Z,64.49
2023-01-07T07:35:53.082Z,65.15
2023-01-07T07:38:25.676Z,65.36
2023-01-07T07:40:58.171Z,64.55
2023-01-07T07:43:34.795Z,65.58
2023-01-07T07:46:07.275Z,64.51
2023-01-07T07:48:39.858Z,65.47
2023-01-07T07:51:12.305Z,65.68
2023-01-07T07:53:44.999Z,65.64
2023-01-07T07:56:17.371Z,65.24
2023-01-07T07:58:51.290Z,65.16
2023-01-07T08:01:23.860Z,65.60
2023-01-07T08:03:56.554Z,64.57
2023-01-07T08:06:29.040Z,65.28
2023-01-07T08:09:01.674Z,65.48
2023-01-07T08:11:34.189Z,65.12
2023-01-07T08:14:09.800Z,65.18
2023-01-07T08:16:42.191Z,64.88
2023-01-07T08:19:15.406Z,65.20
2023-01-07T08:21:49.208Z,65.09
2023-01-07T08:24:21.861Z,65.26
2023-01-07T08:26:55.795Z,65.75
2023-01-07T08:29:29.790Z,65.35
2023-01-07T08:32:02.325Z,66.03
2023-01-07T08:34:34.769Z,66.16
2023-01-07T08:37:07.208Z,65.84
2023-01-07T08:39:39.715Z,65.16
2023-01-07T08:42:12.148Z,65.42
2023-01-07T08:44:46.117Z,65.27
2023-01-07T08:47:18.501Z,66.07
2023-01-07T08:49:51.004Z,65.22
2023-01-07T08:52:24.242Z,65.43
2023-01-07T08:54:56.694Z,65.38
2023-01-07T08:57:29.089Z,65.21
2023-01-07T09:00:03.348Z,65.28
2023-01-07T09:02:37.375Z,65.31
2023-01-07T09:05:11.020Z,65.32
2023-01-07T09:07:43.510Z,66.01
2023-01-07T09:10:16.026Z,66.02
2023-01-07T09:12:48.369Z,66.02
2023-01-07T09:15:22.289Z,65.64
2023-01-07T09:17:54.820Z,65.73
2023-01-07T09:20:27.559Z,65.26
2023-01-07T09:23:00.025Z,65.96
2023-01-07T09:25:32.510Z,66.17
2023-01-07T09:28:05.108Z,66.20
2023-01-07T09:30:39.059Z,66.09
2023-01-07T09:33:11.739Z,66.22
2023-01-07T09:35:44.307Z,66.14
2023-01-07T09:38:16.730Z,66.34
2023-01-07T09:40:49.765Z,66.09
2023-01-07T09:44:00.459Z,65.52
2023-01-07T09:46:23.551Z,65.28
2023-01-07T09:48:59.706Z,65.72
2023-01-07T09:51:37.436Z,66.17
2023-01-07T09:54:21.781Z,65.85
2023-01-07T09:56:54.432Z,66.40
2023-01-07T09:59:27.105Z,66.24
2023-01-07T10:02:16.825Z,66.58
2023-01-07T10:04:57.857Z,65.99
2023-01-07T10:07:37.070Z,66.69
2023-01-07T10:10:17.100Z,66.72
2023-01-07T10:12:57.138Z,66.00
2023-01-07T10:15:51.625Z,66.02
2023-01-07T10:18:47.118Z,65.86
2023-01-07T10:21:24.352Z,66.04
2023-01-07T10:24:03.529Z,65.95
2023-01-07T10:26:41.461Z,66.74
2023-01-07T10:29:20.203Z,66.28
2023-01-07T10:31:57.425Z,66.86
2023-01-07T10:34:37.598Z,66.83
2023-01-07T10:37:28.385Z,67.07
2023-01-07T10:40:17.895Z,66.28
2023-01-07T10:42:59.610Z,66.80
2023-01-07T10:45:58.493Z,66.64
2023-01-07T10:48:48.594Z,67.10
2023-01-07T10:51:49.977Z,67.16
2023-01-07T10:54:44.265Z,66.86
2023-01-07T10:57:20.274Z,66.22
2023-01-07T10:59:54.815Z,66.91
2023-01-07T11:02:27.866Z,67.19
2023-01-07T11:05:00.539Z,66.50
2023-01-07T11:07:44.227Z,66.68
2023-01-07T11:10:19.482Z,67.07
2023-01-07T11:12:55.827Z,66.75
2023-01-07T11:15:32.914Z,66.34
2023-01-07T11:18:12.377Z,66.65
2023-01-07T11:20:47.338Z,67.27
2023-01-07T11:23:30.182Z,67.08
2023-01-07T11:26:10.469Z,67.23
2023-01-07T11:28:50.745Z,66.97
2023-01-07T11:31:42.712Z,67.50
2023-01-07T11:34:23.293Z,67.42
2023-01-07T11:36:55.898Z,67.09
2023-01-07T11:39:33.013Z,66.90
2023-01-07T11:42:34.152Z,67.61
2023-01-07T11:45:14.610Z,67.25
2023-01-07T11:47:50.275Z,67.53
2023-01-07T11:50:29.759Z,67.57
2023-01-07T11:53:21.427Z,67.52
2023-01-07T11:56:00.239Z,67.13
2023-01-07T11:58:35.464Z,66.87
2023-01-07T12:01:19.281Z,67.43
2023-01-07T12:04:13.817Z,67.25
2023-01-07T12:06:48.346Z,67.27
2023-01-07T12:09:27.071Z,67.56
2023-01-07T12:12:30.338Z,66.76
2023-01-07T12:15:06.428Z,66.99
2023-01-07T12:17:39.429Z,67.63
2023-01-07T12:20:37.316Z,67.53
2023-01-07T12:23:20.124Z,66.67
2023-01-07T12:26:03.433Z,66.64
2023-01-07T12:28:53.326Z,66.89
2023-01-07T12:31:38.243Z,66.65
2023-01-07T12:34:25.839Z,66.48
2023-01-07T12:37:01.882Z,66.03
2023-01-07T12:39:36.664Z,65.80
2023-01-07T12:42:17.634Z,66.26
2023-01-07T12:44:55.155Z,66.37
2023-01-07T12:47:35.083Z,66.09
2023-01-07T12:50:14.803Z,65.92
2023-01-07T12:52:51.637Z,66.15
2023-01-07T12:55:28.801Z,65.75
2023-01-07T12:58:06.507Z,65.50
2023-01-07T13:00:46.867Z,66.12
2023-01-07T13:03:29.049Z,65.64
2023-01-07T13:06:11.599Z,65.76
2023-01-07T13:08:50.188Z,66.45
2023-01-07T13:11:47.525Z,66.21
2023-01-07T13:14:25.225Z,67.04
2023-01-07T13:17:12.527Z,66.58
2023-01-07T13:19:44.968Z,66.96
2023-01-07T13:22:25.330Z,66.84
2023-01-07T13:25:12.564Z,66.66
2023-01-07T13:28:08.697Z,67.29
2023-01-07T13:30:52.142Z,67.02
2023-01-07T13:33:31.903Z,67.54
2023-01-07T13:36:19.636Z,67.35
2023-01-07T13:39:21.381Z,66.89
2023-01-07T13:42:17.481Z,67.08
2023-01-07T13:44:57.960Z,67.38
2023-01-07T13:47:40.395Z,67.32
2023-01-07T13:50:32.057Z,66.97
2023-01-07T13:53:06.622Z,66.44
2023-01-07T13:55:41.253Z,67.45
2023-01-07T13:58:34.987Z,67.43
2023-01-07T14:01:09.007Z,67.30
2023-01-07T14:03:43.964Z,66.89
2023-01-07T14:06:46.794Z,67.30
2023-01-07T14:09:25.356Z,67.41
2023-01-07T14:12:22.619Z,67.18
2023-01-07T14:15:17.782Z,67.00
2023-01-07T14:18:01.987Z,66.74
2023-01-07T14:20:45.005Z,67.57
2023-01-07T14:23:28.957Z,66.73
2023-01-07T14:26:15.184Z,67.43
2023-01-07T14:29:08.747Z,66.99
2023-01-07T14:31:41.520Z,67.36
2023-01-07T14:34:20.987Z,67.33
2023-01-07T14:37:15.307Z,66.81
2023-01-07T14:39:49.170Z,67.09
2023-01-07T14:42:48.705Z,66.80
2023-01-07T14:45:53.617Z,67.55
2023-01-07T14:48:32.199Z,67.30
2023-01-07T14:51:32.473Z,67.40
2023-01-07T14:54:42.071Z,67.38
2023-01-07T14:57:30.565Z,66.99
2023-01-07T15:00:36.562Z,67.24
2023-01-07T15:03:32.984Z,66.66
2023-01-07T15:06:21.917Z,67.27
2023-01-07T15:09:21.316Z,66.63
2023-01-07T15:12:15.788Z,67.40
2023-01-07T15:15:13.286Z,66.80
2023-01-07T15:17:45.795Z,67.13
2023-01-07T15:20:18.988Z,67.01
2023-01-07T15:23:09.359Z,66.70
2023-01-07T15:25:51.535Z,67.05
2023-01-07T15:28:35.852Z,66.82
2023-01-07T15:31:18.399Z,67.08
2023-01-07T15:34:08.307Z,67.22
2023-01-07T15:36:43.704Z,67.07
2023-01-07T15:39:20.027Z,66.21
2023-01-07T15:41:54.471Z,66.89
2023-01-07T15:44:35.223Z,66.85
2023-01-07T15:47:35.384Z,66.08
2023-01-07T15:50:23.673Z,66.31
2023-01-07T15:52:58.117Z,66.62
2023-01-07T15:55:36.522Z,66.73
2023-01-07T15:58:14.453Z,67.17
2023-01-07T16:00:50.728Z,66.05
2023-01-07T16:03:25.462Z,66.30
2023-01-07T16:05:59.370Z,66.21
2023-01-07T16:08:33.710Z,66.68
2023-01-07T16:11:09.047Z,66.67
2023-01-07T16:13:41.602Z,65.87
2023-01-07T16:16:16.461Z,66.28
2023-01-07T16:18:55.915Z,65.95
2023-01-07T16:21:31.626Z,66.55
2023-01-07T16:24:05.935Z,65.92
2023-01-07T16:26:41.431Z,66.95
2023-01-07T16:29:19.181Z,66.32
2023-01-07T16:31:52.253Z,65.81
2023-01-07T16:35:04.517Z,66.26
2023-01-07T16:37:40.040Z,65.94
2023-01-07T16:40:21.153Z,66.35
2023-01-07T16:42:53.832Z,66.44
2023-01-07T16:45:29.477Z,66.02
2023-01-07T16:48:16.755Z,65.92
2023-01-07T16:50:50.674Z,66.04
2023-01-07T16:53:30.693Z,65.67
2023-01-07T16:56:14.946Z,65.74
2023-01-07T16:58:52.963Z,66.25
2023-01-07T17:01:33.970Z,66.69
2023-01-07T17:04:15.990Z,66.67
2023-01-07T17:06:49.225Z,66.20
2023-01-07T17:09:26.849Z,66.29
2023-01-07T17:12:00.363Z,66.17
2023-01-07T17:14:50.086Z,66.22
2023-01-07T17:17:32.568Z,65.59
2023-01-07T17:20:22.853Z,66.53
2023-01-07T17:22:55.429Z,66.34
2023-01-07T17:25:30.670Z,66.61
2023-01-07T17:28:09.354Z,65.54
2023-01-07T17:30:41.864Z,66.45
2023-01-07T17:33:16.575Z,66.14
2023-01-07T17:35:50.227Z,66.48
2023-01-07T17:38:23.922Z,66.52
2023-01-07T17:40:58.705Z,65.85
2023-01-07T17:43:34.334Z,66.19
2023-01-07T17:46:10.314Z,66.25
2023-01-07T17:48:42.997Z,65.39
2023-01-07T17:51:15.703Z,66.30
2023-01-07T17:53:50.551Z,66.47
2023-01-07T17:56:25.049Z,65.81
2023-01-07T17:58:57.601Z,66.27
2023-01-07T18:01:31.788Z,65.23
2023-01-07T18:04:04.544Z,66.14
2023-01-07T18:06:38.296Z,65.33
2023-01-07T18:09:11.639Z,65.21
2023-01-07T18:12:05.430Z,65.67
2023-01-07T18:14:38.170Z,65.79
2023-01-07T18:17:10.678Z,65.91
2023-01-07T18:19:43.223Z,65.21
2023-01-07T18:22:15.707Z,66.01
2023-01-07T18:24:48.532Z,65.50
2023-01-07T18:27:23.100Z,65.33
2023-01-07T18:29:55.887Z,65.54
2023-01-07T18:32:28.518Z,65.51
2023-01-07T18:35:01.213Z,65.48
2023-01-07T18:37:35.018Z,65.19
2023-01-07T18:40:09.593Z,66.02
2023-01-07T18:42:44.816Z,64.74
2023-01-07T18:45:17.998Z,65.28
2023-01-07T18:47:50.713Z,65.91
2023-01-07T18:50:23.480Z,65.71
2023-01-07T18:52:56.629Z,65.05
2023-01-07T18:55:29.722Z,64.85
2023-01-07T18:58:04.118Z,65.80
2023-01-07T19:00:37.292Z,65.69
2023-01-07T19:03:10.752Z,64.72
2023-01-07T19:05:43.476Z,65.94
2023-01-07T19:08:16.907Z,65.27
2023-01-07T19:10:50.131Z,65.80
2023-01-07T19:13:24.309Z,65.11
2023-01-07T19:15:57.248Z,64.65
2023-01-07T19:18:30.236Z,65.73
2023-01-07T19:21:03.707Z,65.35
2023-01-07T19:23:36.318Z,66.03
2023-01-07T19:26:11.720Z,65.47
2023-01-07T19:28:45.693Z,65.21
2023-01-07T19:31:18.277Z,64.82
2023-01-07T19:33:50.708Z,64.68
2023-01-07T19:36:23.629Z,65.70
2023-01-07T19:38:55.995Z,65.87
2023-01-07T19:41:28.672Z,64.96
2023-01-07T19:44:02.741Z,65.33
2023-01-07T19:46:37.815Z,64.96
2023-01-07T19:49:11.563Z,64.48
2023-01-07T19:51:44.643Z,65.07
2023-01-07T19:54:17.718Z,65.69
2023-01-07T19:56:50.299Z,64.63
2023-01-07T19:59:25.415Z,65.96
2023-01-07T20:01:58.074Z,64.82
2023-01-07T20:04:30.898Z,65.77
2023-01-07T20:07:03.375Z,65.23
2023-01-07T20:09:35.796Z,65.90
2023-01-07T20:12:08.475Z,64.84
2023-01-07T20:14:44.607Z,65.67
2023-01-07T20:17:17.413Z,64.60
2023-01-07T20:19:49.860Z,65.27
2023-01-07T20:22:22.419Z,65.81
2023-01-07T20:24:54.783Z,64.98
2023-01-07T20:27:27.409Z,64.49
2023-01-07T20:30:01.337Z,65.45
2023-01-07T20:32:36.090Z,64.78
2023-01-07T20:35:09.595Z,65.37
2023-01-07T20:37:42.304Z,64.62
2023-01-07T20:40:15.076Z,65.49
2023-01-07T20:42:58.466Z,65.67
2023-01-07T20:45:33.416Z,64.57
2023-01-07T20:48:08.811Z,64.37
2023-01-07T20:50:51.059Z,64.43
2023-01-07T20:53:24.222Z,65.13
2023-01-07T20:55:57.320Z,65.11
2023-01-07T20:58:32.170Z,65.08
2023-01-07T21:01:07.891Z,65.52
2023-01-07T21:03:40.886Z,65.48
2023-01-07T21:06:15.189Z,64.55
2023-01-07T21:08:48.430Z,64.73
2023-01-07T21:11:23.194Z,64.44
2023-01-07T21:13:56.596Z,64.51
2023-01-07T21:16:30.549Z,64.37
2023-01-07T21:19:03.168Z,65.11
2023-01-07T21:21:35.501Z,65.20
2023-01-07T21:24:08.115Z,65.35
2023-01-07T21:26:40.715Z,65.48
2023-01-07T21:29:14.219Z,64.31
2023-01-07T21:31:48.072Z,63.93
2023-01-07T21:34:21.402Z,64.97
2023-01-07T21:36:53.871Z,65.08
2023-01-07T21:39:26.711Z,64.15
2023-01-07T21:41:59.073Z,64.16
2023-01-07T21:44:31.620Z,64.75
2023-01-07T21:47:05.872Z,64.18
2023-01-07T21:49:38.393Z,64.71
2023-01-07T21:52:10.757Z,64.29
2023-01-07T21:54:43.262Z,64.48
2023-01-07T21:57:15.583Z,64.61
2023-01-07T21:59:48.333Z,64.33
2023-01-07T22:02:22.151Z,65.39
2023-01-07T22:04:54.664Z,65.49
2023-01-07T22:07:27.100Z,64.54
2023-01-07T22:09:59.570Z,63.94
2023-01-07T22:12:31.996Z,64.00
2023-01-07T22:15:05.092Z,64.92
2023-01-07T22:17:39.111Z,65.34
2023-01-07T22:20:12.847Z,64.94
2023-01-07T22:22:45.384Z,65.01
2023-01-07T22:25:17.958Z,64.80
2023-01-07T22:27:50.433Z,64.17
2023-01-07T22:30:24.282Z,63.85
2023-01-07T22:32:58.249Z,65.07
2023-01-07T22:35:31.134Z,64.38
2023-01-07T22:38:05.405Z,65.05
2023-01-07T22:40:39.105Z,64.13
2023-01-07T22:43:14.862Z,64.36
2023-01-07T22:45:52.807Z,65.35
2023-01-07T22:48:29.953Z,64.46
2023-01-07T22:51:08.620Z,64.90
2023-01-07T22:53:41.265Z,64.31
2023-01-07T22:56:14.385Z,64.92
2023-01-07T22:58:47.017Z,65.46
2023-01-07T23:01:20.192Z,64.36
2023-01-07T23:03:54.112Z,65.12
2023-01-07T23:06:27.997Z,64.54
2023-01-07T23:09:00.543Z,64.48
2023-01-07T23:11:48.548Z,64.74
2023-01-07T23:14:22.869Z,63.86
2023-01-07T23:16:55.661Z,63.88
2023-01-07T23:19:31.939Z,64.11
2023-01-07T23:22:04.694Z,64.17
2023-01-07T23:24:37.436Z,64.65
2023-01-07T23:27:10.019Z,64.99
2023-01-07T23:29:42.359Z,64.57
2023-01-07T23:32:14.877Z,65.03
2023-01-07T23:34:48.878Z,64.79
2023-01-07T23:37:21.349Z,63.72
2023-01-07T23:39:53.848Z,64.58
2023-01-07T23:42:26.439Z,64.06
2023-01-07T23:44:59.200Z,65.03
2023-01-07T23:47:31.622Z,64.93
2023-01-07T23:50:06.525Z,63.41
2023-01-07T23:52:39.333Z,64.89
2023-01-07T23:55:11.982Z,64.78
2023-01-07T23:57:45.330Z,63.52
